sensor_id;sensor_type;location;lat;lon;timestamp;P1;durP1;ratioP1;P2;durP2;ratioP2
16033;SDS011;8121;51.418;6.998;2024-03-06T00:03:52;11.33;;;6.53;;
16033;SDS011;8121;51.418;6.998;2024-03-06T00:08:53;10.60;;;6.83;;
16033;SDS011;8121;51.418;6.998;2024-03-06T00:13:55;13.43;;;7.83;;
16033;SDS011;8121;51.418;6.998;2024-03-06T00:18:58;12.70;;;7.20;;
16033;SDS011;8121;51.418;6.998;2024-03-06T00:23:59;22.40;;;12.60;;
16033;SDS011;8121;51.418;6.998;2024-03-06T00:29:01;12.30;;;7.70;;
16033;SDS011;8121;51.418;6.998;2024-03-06T00:34:04;10.17;;;6.97;;
16033;SDS011;8121;51.418;6.998;2024-03-06T00:39:06;12.40;;;7.40;;
16033;SDS011;8121;51.418;6.998;2024-03-06T00:44:08;13.10;;;7.13;;
16033;SDS011;8121;51.418;6.998;2024-03-06T00:49:11;18.33;;;6.80;;
16033;SDS011;8121;51.418;6.998;2024-03-06T00:54:12;12.73;;;8.20;;
16033;SDS011;8121;51.418;6.998;2024-03-06T00:59:14;14.57;;;7.50;;
16033;SDS011;8121;51.418;6.998;2024-03-06T01:04:16;13.80;;;7.50;;
16033;SDS011;8121;51.418;6.998;2024-03-06T01:09:18;14.40;;;8.60;;
16033;SDS011;8121;51.418;6.998;2024-03-06T01:14:20;16.27;;;8.23;;
16033;SDS011;8121;51.418;6.998;2024-03-06T01:19:23;14.70;;;8.87;;
16033;SDS011;8121;51.418;6.998;2024-03-06T01:24:25;10.80;;;7.20;;
16033;SDS011;8121;51.418;6.998;2024-03-06T01:29:26;16.43;;;9.83;;
16033;SDS011;8121;51.418;6.998;2024-03-06T01:34:30;23.30;;;12.90;;
16033;SDS011;8121;51.418;6.998;2024-03-06T01:39:32;23.30;;;12.30;;
16033;SDS011;8121;51.418;6.998;2024-03-06T01:44:35;12.33;;;7.47;;
16033;SDS011;8121;51.418;6.998;2024-03-06T01:49:39;13.00;;;8.07;;
16033;SDS011;8121;51.418;6.998;2024-03-06T01:54:41;14.87;;;8.20;;
16033;SDS011;8121;51.418;6.998;2024-03-06T01:59:43;12.50;;;6.73;;
16033;SDS011;8121;51.418;6.998;2024-03-06T02:04:46;12.53;;;7.07;;
16033;SDS011;8121;51.418;6.998;2024-03-06T02:09:48;11.30;;;6.47;;
16033;SDS011;8121;51.418;6.998;2024-03-06T02:14:50;14.40;;;8.07;;
16033;SDS011;8121;51.418;6.998;2024-03-06T02:19:53;17.50;;;10.07;;
16033;SDS011;8121;51.418;6.998;2024-03-06T02:24:57;16.80;;;9.90;;
16033;SDS011;8121;51.418;6.998;2024-03-06T02:29:59;13.97;;;8.83;;
16033;SDS011;8121;51.418;6.998;2024-03-06T02:35:01;15.93;;;8.90;;
16033;SDS011;8121;51.418;6.998;2024-03-06T02:40:05;14.73;;;7.90;;
16033;SDS011;8121;51.418;6.998;2024-03-06T02:45:10;11.67;;;8.03;;
16033;SDS011;8121;51.418;6.998;2024-03-06T02:50:11;16.70;;;10.37;;
16033;SDS011;8121;51.418;6.998;2024-03-06T02:55:14;14.50;;;8.23;;
16033;SDS011;8121;51.418;6.998;2024-03-06T03:00:16;22.97;;;12.57;;
16033;SDS011;8121;51.418;6.998;2024-03-06T03:05:18;16.77;;;8.00;;
16033;SDS011;8121;51.418;6.998;2024-03-06T03:10:21;19.00;;;9.63;;
16033;SDS011;8121;51.418;6.998;2024-03-06T03:15:24;12.20;;;7.90;;
16033;SDS011;8121;51.418;6.998;2024-03-06T03:20:26;20.33;;;8.60;;
16033;SDS011;8121;51.418;6.998;2024-03-06T03:25:29;16.20;;;8.60;;
16033;SDS011;8121;51.418;6.998;2024-03-06T03:30:31;24.40;;;11.40;;
16033;SDS011;8121;51.418;6.998;2024-03-06T03:35:33;19.80;;;10.43;;
16033;SDS011;8121;51.418;6.998;2024-03-06T03:40:36;20.07;;;10.00;;
16033;SDS011;8121;51.418;6.998;2024-03-06T03:45:37;13.80;;;8.27;;
16033;SDS011;8121;51.418;6.998;2024-03-06T03:50:39;16.70;;;7.93;;
16033;SDS011;8121;51.418;6.998;2024-03-06T03:55:41;18.83;;;7.67;;
16033;SDS011;8121;51.418;6.998;2024-03-06T04:00:43;17.67;;;8.60;;
16033;SDS011;8121;51.418;6.998;2024-03-06T04:05:45;19.97;;;10.63;;
16033;SDS011;8121;51.418;6.998;2024-03-06T04:10:49;15.10;;;7.90;;
16033;SDS011;8121;51.418;6.998;2024-03-06T04:15:52;20.70;;;9.70;;
16033;SDS011;8121;51.418;6.998;2024-03-06T04:20:54;14.73;;;8.20;;
16033;SDS011;8121;51.418;6.998;2024-03-06T04:25:57;22.10;;;11.17;;
16033;SDS011;8121;51.418;6.998;2024-03-06T04:30:58;18.20;;;11.27;;
16033;SDS011;8121;51.418;6.998;2024-03-06T04:36:00;16.10;;;9.70;;
16033;SDS011;8121;51.418;6.998;2024-03-06T04:41:06;19.73;;;9.50;;
16033;SDS011;8121;51.418;6.998;2024-03-06T04:46:11;23.13;;;12.67;;
16033;SDS011;8121;51.418;6.998;2024-03-06T04:51:13;22.80;;;12.53;;
16033;SDS011;8121;51.418;6.998;2024-03-06T04:56:16;29.23;;;14.60;;
16033;SDS011;8121;51.418;6.998;2024-03-06T05:01:19;15.83;;;9.00;;
16033;SDS011;8121;51.418;6.998;2024-03-06T05:06:21;16.53;;;8.30;;
16033;SDS011;8121;51.418;6.998;2024-03-06T05:11:25;23.30;;;10.20;;
16033;SDS011;8121;51.418;6.998;2024-03-06T05:16:27;15.67;;;8.03;;
16033;SDS011;8121;51.418;6.998;2024-03-06T05:21:29;24.03;;;11.53;;
16033;SDS011;8121;51.418;6.998;2024-03-06T05:26:31;15.30;;;8.97;;
16033;SDS011;8121;51.418;6.998;2024-03-06T05:31:34;21.43;;;11.90;;
16033;SDS011;8121;51.418;6.998;2024-03-06T05:36:36;27.67;;;13.07;;
16033;SDS011;8121;51.418;6.998;2024-03-06T05:41:39;26.13;;;13.83;;
16033;SDS011;8121;51.418;6.998;2024-03-06T05:46:41;25.53;;;13.47;;
16033;SDS011;8121;51.418;6.998;2024-03-06T05:51:42;16.63;;;10.30;;
16033;SDS011;8121;51.418;6.998;2024-03-06T05:56:47;22.47;;;12.47;;
16033;SDS011;8121;51.418;6.998;2024-03-06T06:01:48;26.37;;;10.77;;
16033;SDS011;8121;51.418;6.998;2024-03-06T06:06:50;26.10;;;14.10;;
16033;SDS011;8121;51.418;6.998;2024-03-06T06:11:53;20.70;;;10.03;;
16033;SDS011;8121;51.418;6.998;2024-03-06T06:16:55;23.20;;;11.03;;
16033;SDS011;8121;51.418;6.998;2024-03-06T06:21:57;35.07;;;14.70;;
16033;SDS011;8121;51.418;6.998;2024-03-06T06:27:01;18.67;;;10.37;;
16033;SDS011;8121;51.418;6.998;2024-03-06T06:32:02;22.70;;;9.17;;
16033;SDS011;8121;51.418;6.998;2024-03-06T06:37:04;23.50;;;10.20;;
16033;SDS011;8121;51.418;6.998;2024-03-06T06:42:07;27.83;;;13.97;;
16033;SDS011;8121;51.418;6.998;2024-03-06T06:47:10;26.03;;;10.50;;
16033;SDS011;8121;51.418;6.998;2024-03-06T06:52:12;22.43;;;9.67;;
16033;SDS011;8121;51.418;6.998;2024-03-06T06:57:15;22.20;;;11.60;;
16033;SDS011;8121;51.418;6.998;2024-03-06T07:02:16;19.90;;;9.73;;
16033;SDS011;8121;51.418;6.998;2024-03-06T07:07:18;36.27;;;16.03;;
16033;SDS011;8121;51.418;6.998;2024-03-06T07:12:21;21.80;;;10.23;;
16033;SDS011;8121;51.418;6.998;2024-03-06T07:17:23;16.27;;;9.40;;
16033;SDS011;8121;51.418;6.998;2024-03-06T07:22:24;27.90;;;13.03;;
16033;SDS011;8121;51.418;6.998;2024-03-06T07:27:30;19.60;;;10.33;;
16033;SDS011;8121;51.418;6.998;2024-03-06T07:32:31;18.60;;;9.17;;
16033;SDS011;8121;51.418;6.998;2024-03-06T07:37:33;13.60;;;7.13;;
16033;SDS011;8121;51.418;6.998;2024-03-06T07:42:37;14.87;;;7.70;;
16033;SDS011;8121;51.418;6.998;2024-03-06T07:47:39;16.63;;;9.17;;
16033;SDS011;8121;51.418;6.998;2024-03-06T07:52:41;11.13;;;6.83;;
16033;SDS011;8121;51.418;6.998;2024-03-06T07:57:45;10.13;;;6.03;;
16033;SDS011;8121;51.418;6.998;2024-03-06T08:02:47;15.97;;;8.40;;
16033;SDS011;8121;51.418;6.998;2024-03-06T08:07:51;13.77;;;6.60;;
16033;SDS011;8121;51.418;6.998;2024-03-06T08:12:55;17.57;;;10.27;;
16033;SDS011;8121;51.418;6.998;2024-03-06T08:17:57;33.03;;;14.03;;
16033;SDS011;8121;51.418;6.998;2024-03-06T08:22:59;24.30;;;13.80;;
16033;SDS011;8121;51.418;6.998;2024-03-06T08:28:02;26.30;;;13.43;;
16033;SDS011;8121;51.418;6.998;2024-03-06T08:33:05;27.03;;;14.23;;
16033;SDS011;8121;51.418;6.998;2024-03-06T08:38:06;19.43;;;10.90;;
16033;SDS011;8121;51.418;6.998;2024-03-06T08:43:09;22.37;;;11.93;;
16033;SDS011;8121;51.418;6.998;2024-03-06T08:48:12;28.47;;;13.20;;
16033;SDS011;8121;51.418;6.998;2024-03-06T08:53:14;24.90;;;13.53;;
16033;SDS011;8121;51.418;6.998;2024-03-06T08:58:17;25.03;;;13.47;;
16033;SDS011;8121;51.418;6.998;2024-03-06T09:03:21;18.23;;;10.07;;
16033;SDS011;8121;51.418;6.998;2024-03-06T09:08:23;26.00;;;12.13;;
16033;SDS011;8121;51.418;6.998;2024-03-06T09:13:26;24.03;;;12.63;;
16033;SDS011;8121;51.418;6.998;2024-03-06T09:18:28;25.23;;;12.43;;
16033;SDS011;8121;51.418;6.998;2024-03-06T09:23:29;28.17;;;13.40;;
16033;SDS011;8121;51.418;6.998;2024-03-06T09:28:34;20.63;;;9.77;;
16033;SDS011;8121;51.418;6.998;2024-03-06T09:33:35;19.40;;;9.97;;
16033;SDS011;8121;51.418;6.998;2024-03-06T09:38:37;21.47;;;11.47;;
16033;SDS011;8121;51.418;6.998;2024-03-06T09:43:42;40.53;;;17.40;;
16033;SDS011;8121;51.418;6.998;2024-03-06T09:48:46;33.43;;;16.57;;
16033;SDS011;8121;51.418;6.998;2024-03-06T09:53:48;26.30;;;12.10;;
16033;SDS011;8121;51.418;6.998;2024-03-06T09:58:53;22.90;;;10.70;;
16033;SDS011;8121;51.418;6.998;2024-03-06T10:03:55;24.97;;;12.27;;
16033;SDS011;8121;51.418;6.998;2024-03-06T10:09:03;24.00;;;12.33;;
16033;SDS011;8121;51.418;6.998;2024-03-06T10:14:09;27.80;;;13.80;;
16033;SDS011;8121;51.418;6.998;2024-03-06T10:19:15;35.30;;;15.93;;
16033;SDS011;8121;51.418;6.998;2024-03-06T10:24:22;25.27;;;13.37;;
16033;SDS011;8121;51.418;6.998;2024-03-06T10:29:28;32.03;;;16.33;;
16033;SDS011;8121;51.418;6.998;2024-03-06T10:34:31;27.60;;;14.00;;
16033;SDS011;8121;51.418;6.998;2024-03-06T10:39:33;23.33;;;12.73;;
16033;SDS011;8121;51.418;6.998;2024-03-06T10:44:38;39.53;;;19.53;;
16033;SDS011;8121;51.418;6.998;2024-03-06T10:49:48;18.90;;;10.53;;
16033;SDS011;8121;51.418;6.998;2024-03-06T10:54:50;20.30;;;11.70;;
16033;SDS011;8121;51.418;6.998;2024-03-06T10:59:53;14.97;;;9.23;;
16033;SDS011;8121;51.418;6.998;2024-03-06T11:04:54;18.60;;;10.33;;
16033;SDS011;8121;51.418;6.998;2024-03-06T11:09:58;21.33;;;10.50;;
16033;SDS011;8121;51.418;6.998;2024-03-06T11:15:03;20.37;;;11.43;;
16033;SDS011;8121;51.418;6.998;2024-03-06T11:20:15;13.47;;;8.70;;
16033;SDS011;8121;51.418;6.998;2024-03-06T11:30:57;40.60;;;19.30;;
16033;SDS011;8121;51.418;6.998;2024-03-06T11:36:16;33.47;;;18.33;;
16033;SDS011;8121;51.418;6.998;2024-03-06T11:41:21;33.63;;;17.00;;
16033;SDS011;8121;51.418;6.998;2024-03-06T11:51:52;41.28;;;21.40;;
16033;SDS011;8121;51.418;6.998;2024-03-06T11:56:56;50.33;;;21.00;;
16033;SDS011;8121;51.418;6.998;2024-03-06T12:01:59;43.33;;;21.93;;
16033;SDS011;8121;51.418;6.998;2024-03-06T12:07:07;20.57;;;11.67;;
16033;SDS011;8121;51.418;6.998;2024-03-06T12:12:13;32.07;;;16.40;;
16033;SDS011;8121;51.418;6.998;2024-03-06T12:17:16;26.20;;;14.60;;
16033;SDS011;8121;51.418;6.998;2024-03-06T12:22:27;30.73;;;15.20;;
16033;SDS011;8121;51.418;6.998;2024-03-06T12:27:30;26.57;;;13.67;;
16033;SDS011;8121;51.418;6.998;2024-03-06T12:32:34;29.07;;;14.50;;
16033;SDS011;8121;51.418;6.998;2024-03-06T12:37:37;19.27;;;11.87;;
16033;SDS011;8121;51.418;6.998;2024-03-06T12:42:38;26.83;;;13.53;;
16033;SDS011;8121;51.418;6.998;2024-03-06T12:47:41;26.13;;;14.50;;
16033;SDS011;8121;51.418;6.998;2024-03-06T12:52:45;16.80;;;10.20;;
16033;SDS011;8121;51.418;6.998;2024-03-06T12:57:48;29.80;;;13.90;;
16033;SDS011;8121;51.418;6.998;2024-03-06T13:02:51;24.90;;;12.67;;
16033;SDS011;8121;51.418;6.998;2024-03-06T13:07:54;32.53;;;15.67;;
16033;SDS011;8121;51.418;6.998;2024-03-06T13:12:56;21.30;;;11.93;;
16033;SDS011;8121;51.418;6.998;2024-03-06T13:17:57;25.70;;;13.30;;
16033;SDS011;8121;51.418;6.998;2024-03-06T13:23:00;24.87;;;13.57;;
16033;SDS011;8121;51.418;6.998;2024-03-06T13:28:02;28.83;;;13.33;;
16033;SDS011;8121;51.418;6.998;2024-03-06T13:33:05;28.17;;;14.00;;
16033;SDS011;8121;51.418;6.998;2024-03-06T13:38:09;23.33;;;13.60;;
16033;SDS011;8121;51.418;6.998;2024-03-06T13:43:10;19.07;;;10.67;;
16033;SDS011;8121;51.418;6.998;2024-03-06T13:48:13;24.27;;;12.43;;
16033;SDS011;8121;51.418;6.998;2024-03-06T13:53:17;21.90;;;12.03;;
16033;SDS011;8121;51.418;6.998;2024-03-06T13:58:19;28.53;;;15.60;;
16033;SDS011;8121;51.418;6.998;2024-03-06T14:03:20;36.50;;;19.17;;
16033;SDS011;8121;51.418;6.998;2024-03-06T14:08:23;39.20;;;19.63;;
16033;SDS011;8121;51.418;6.998;2024-03-06T14:13:26;42.60;;;20.03;;
16033;SDS011;8121;51.418;6.998;2024-03-06T14:18:27;38.67;;;18.70;;
16033;SDS011;8121;51.418;6.998;2024-03-06T14:23:30;28.23;;;14.53;;
16033;SDS011;8121;51.418;6.998;2024-03-06T14:28:33;26.77;;;14.33;;
16033;SDS011;8121;51.418;6.998;2024-03-06T14:33:34;26.93;;;15.20;;
16033;SDS011;8121;51.418;6.998;2024-03-06T14:38:38;33.93;;;19.17;;
16033;SDS011;8121;51.418;6.998;2024-03-06T14:43:40;37.40;;;22.07;;
16033;SDS011;8121;51.418;6.998;2024-03-06T14:48:42;31.53;;;19.13;;
16033;SDS011;8121;51.418;6.998;2024-03-06T14:53:46;36.17;;;19.37;;
16033;SDS011;8121;51.418;6.998;2024-03-06T14:58:48;24.27;;;15.20;;
16033;SDS011;8121;51.418;6.998;2024-03-06T15:03:51;26.57;;;16.20;;
16033;SDS011;8121;51.418;6.998;2024-03-06T15:08:54;28.87;;;16.93;;
16033;SDS011;8121;51.418;6.998;2024-03-06T15:13:56;37.13;;;18.00;;
16033;SDS011;8121;51.418;6.998;2024-03-06T15:18:58;29.60;;;18.10;;
16033;SDS011;8121;51.418;6.998;2024-03-06T15:24:01;28.23;;;16.57;;
16033;SDS011;8121;51.418;6.998;2024-03-06T15:29:03;31.90;;;17.87;;
16033;SDS011;8121;51.418;6.998;2024-03-06T15:34:06;26.00;;;16.07;;
16033;SDS011;8121;51.418;6.998;2024-03-06T15:39:11;16.47;;;9.57;;
16033;SDS011;8121;51.418;6.998;2024-03-06T15:44:14;23.40;;;13.90;;
16033;SDS011;8121;51.418;6.998;2024-03-06T15:49:19;30.80;;;17.03;;
16033;SDS011;8121;51.418;6.998;2024-03-06T15:54:26;18.50;;;11.40;;
16033;SDS011;8121;51.418;6.998;2024-03-06T15:59:28;29.13;;;15.03;;
16033;SDS011;8121;51.418;6.998;2024-03-06T16:04:31;22.93;;;13.30;;
16033;SDS011;8121;51.418;6.998;2024-03-06T16:09:34;27.57;;;15.87;;
16033;SDS011;8121;51.418;6.998;2024-03-06T16:14:36;27.47;;;14.90;;
16033;SDS011;8121;51.418;6.998;2024-03-06T16:19:38;25.60;;;14.40;;
16033;SDS011;8121;51.418;6.998;2024-03-06T16:24:53;24.97;;;13.57;;
16033;SDS011;8121;51.418;6.998;2024-03-06T16:29:56;25.83;;;13.30;;
16033;SDS011;8121;51.418;6.998;2024-03-06T16:35:01;24.63;;;13.13;;
16033;SDS011;8121;51.418;6.998;2024-03-06T16:40:07;20.47;;;10.50;;
16033;SDS011;8121;51.418;6.998;2024-03-06T16:45:10;23.83;;;12.57;;
16033;SDS011;8121;51.418;6.998;2024-03-06T16:50:14;25.13;;;11.47;;
16033;SDS011;8121;51.418;6.998;2024-03-06T16:55:17;25.97;;;13.10;;
16033;SDS011;8121;51.418;6.998;2024-03-06T17:00:19;19.80;;;11.60;;
16033;SDS011;8121;51.418;6.998;2024-03-06T17:05:22;21.10;;;11.97;;
16033;SDS011;8121;51.418;6.998;2024-03-06T17:10:26;17.20;;;10.50;;
16033;SDS011;8121;51.418;6.998;2024-03-06T17:15:29;19.03;;;10.80;;
16033;SDS011;8121;51.418;6.998;2024-03-06T17:20:32;16.90;;;9.60;;
16033;SDS011;8121;51.418;6.998;2024-03-06T17:25:35;21.30;;;11.80;;
16033;SDS011;8121;51.418;6.998;2024-03-06T17:30:38;23.60;;;12.80;;
16033;SDS011;8121;51.418;6.998;2024-03-06T17:35:43;21.53;;;11.07;;
16033;SDS011;8121;51.418;6.998;2024-03-06T17:46:21;28.60;;;13.97;;
16033;SDS011;8121;51.418;6.998;2024-03-06T17:51:28;26.30;;;14.70;;
16033;SDS011;8121;51.418;6.998;2024-03-06T17:56:32;27.20;;;14.80;;
16033;SDS011;8121;51.418;6.998;2024-03-06T18:01:35;29.97;;;14.30;;
16033;SDS011;8121;51.418;6.998;2024-03-06T18:06:36;29.13;;;14.20;;
16033;SDS011;8121;51.418;6.998;2024-03-06T18:11:44;28.50;;;14.67;;
16033;SDS011;8121;51.418;6.998;2024-03-06T18:16:46;35.70;;;16.80;;
16033;SDS011;8121;51.418;6.998;2024-03-06T18:21:47;39.67;;;15.83;;
16033;SDS011;8121;51.418;6.998;2024-03-06T18:26:50;28.90;;;14.80;;
16033;SDS011;8121;51.418;6.998;2024-03-06T18:31:52;29.40;;;16.73;;
16033;SDS011;8121;51.418;6.998;2024-03-06T18:36:54;35.20;;;16.50;;
16033;SDS011;8121;51.418;6.998;2024-03-06T18:42:00;41.93;;;18.20;;
16033;SDS011;8121;51.418;6.998;2024-03-06T18:47:03;29.77;;;14.30;;
16033;SDS011;8121;51.418;6.998;2024-03-06T18:52:06;34.20;;;18.97;;
16033;SDS011;8121;51.418;6.998;2024-03-06T18:57:10;30.53;;;16.37;;
16033;SDS011;8121;51.418;6.998;2024-03-06T19:02:11;35.50;;;16.37;;
16033;SDS011;8121;51.418;6.998;2024-03-06T19:07:15;30.57;;;16.00;;
16033;SDS011;8121;51.418;6.998;2024-03-06T19:12:20;31.33;;;17.50;;
16033;SDS011;8121;51.418;6.998;2024-03-06T19:17:22;28.40;;;13.67;;
16033;SDS011;8121;51.418;6.998;2024-03-06T19:22:23;35.37;;;19.20;;
16033;SDS011;8121;51.418;6.998;2024-03-06T19:27:27;30.10;;;15.30;;
16033;SDS011;8121;51.418;6.998;2024-03-06T19:32:29;29.97;;;15.37;;
16033;SDS011;8121;51.418;6.998;2024-03-06T19:37:30;32.47;;;16.87;;
16033;SDS011;8121;51.418;6.998;2024-03-06T19:42:35;32.70;;;17.37;;
16033;SDS011;8121;51.418;6.998;2024-03-06T19:47:37;20.80;;;12.20;;
16033;SDS011;8121;51.418;6.998;2024-03-06T19:52:39;36.20;;;16.40;;
16033;SDS011;8121;51.418;6.998;2024-03-06T19:57:45;42.70;;;16.93;;
16033;SDS011;8121;51.418;6.998;2024-03-06T20:02:47;34.37;;;18.40;;
16033;SDS011;8121;51.418;6.998;2024-03-06T20:07:49;37.83;;;15.70;;
16033;SDS011;8121;51.418;6.998;2024-03-06T20:12:54;39.37;;;19.67;;
16033;SDS011;8121;51.418;6.998;2024-03-06T20:18:01;24.27;;;13.50;;
16033;SDS011;8121;51.418;6.998;2024-03-06T20:23:04;28.33;;;14.37;;
16033;SDS011;8121;51.418;6.998;2024-03-06T20:28:11;32.27;;;17.80;;
16033;SDS011;8121;51.418;6.998;2024-03-06T20:33:13;40.93;;;18.90;;
16033;SDS011;8121;51.418;6.998;2024-03-06T20:38:15;38.93;;;17.67;;
16033;SDS011;8121;51.418;6.998;2024-03-06T20:43:18;33.60;;;17.80;;
16033;SDS011;8121;51.418;6.998;2024-03-06T20:48:21;41.83;;;19.70;;
16033;SDS011;8121;51.418;6.998;2024-03-06T20:53:23;36.00;;;20.13;;
16033;SDS011;8121;51.418;6.998;2024-03-06T20:58:27;31.10;;;15.47;;
16033;SDS011;8121;51.418;6.998;2024-03-06T21:03:29;38.90;;;18.70;;
16033;SDS011;8121;51.418;6.998;2024-03-06T21:08:31;42.50;;;20.50;;
16033;SDS011;8121;51.418;6.998;2024-03-06T21:13:34;43.40;;;19.67;;
16033;SDS011;8121;51.418;6.998;2024-03-06T21:18:35;32.80;;;15.73;;
16033;SDS011;8121;51.418;6.998;2024-03-06T21:23:37;51.53;;;21.37;;
16033;SDS011;8121;51.418;6.998;2024-03-06T21:28:42;30.40;;;13.70;;
16033;SDS011;8121;51.418;6.998;2024-03-06T21:33:45;47.13;;;22.23;;
16033;SDS011;8121;51.418;6.998;2024-03-06T21:38:47;37.87;;;17.97;;
16033;SDS011;8121;51.418;6.998;2024-03-06T21:43:51;38.00;;;17.00;;
16033;SDS011;8121;51.418;6.998;2024-03-06T21:48:53;28.20;;;14.40;;
16033;SDS011;8121;51.418;6.998;2024-03-06T21:53:54;22.90;;;11.40;;
16033;SDS011;8121;51.418;6.998;2024-03-06T21:58:58;24.43;;;10.83;;
16033;SDS011;8121;51.418;6.998;2024-03-06T22:04:01;38.53;;;15.60;;
16033;SDS011;8121;51.418;6.998;2024-03-06T22:09:03;29.43;;;13.10;;
16033;SDS011;8121;51.418;6.998;2024-03-06T22:14:11;40.13;;;19.13;;
16033;SDS011;8121;51.418;6.998;2024-03-06T22:19:14;55.60;;;21.47;;
16033;SDS011;8121;51.418;6.998;2024-03-06T22:24:16;38.30;;;17.93;;
16033;SDS011;8121;51.418;6.998;2024-03-06T22:29:20;47.27;;;21.20;;
16033;SDS011;8121;51.418;6.998;2024-03-06T22:34:22;54.10;;;22.77;;
16033;SDS011;8121;51.418;6.998;2024-03-06T22:39:23;30.23;;;14.17;;
16033;SDS011;8121;51.418;6.998;2024-03-06T22:44:28;29.83;;;15.53;;
16033;SDS011;8121;51.418;6.998;2024-03-06T22:49:30;33.57;;;16.33;;
16033;SDS011;8121;51.418;6.998;2024-03-06T22:54:31;24.53;;;13.13;;
16033;SDS011;8121;51.418;6.998;2024-03-06T22:59:36;42.03;;;20.40;;
16033;SDS011;8121;51.418;6.998;2024-03-06T23:04:37;49.80;;;23.10;;
16033;SDS011;8121;51.418;6.998;2024-03-06T23:09:39;39.67;;;18.77;;
16033;SDS011;8121;51.418;6.998;2024-03-06T23:14:42;37.93;;;19.10;;
16033;SDS011;8121;51.418;6.998;2024-03-06T23:19:44;49.47;;;19.00;;
16033;SDS011;8121;51.418;6.998;2024-03-06T23:24:46;24.37;;;13.87;;
16033;SDS011;8121;51.418;6.998;2024-03-06T23:29:49;39.50;;;19.17;;
16033;SDS011;8121;51.418;6.998;2024-03-06T23:34:50;25.90;;;14.17;;
16033;SDS011;8121;51.418;6.998;2024-03-06T23:39:52;25.90;;;13.23;;
16033;SDS011;8121;51.418;6.998;2024-03-06T23:44:55;22.03;;;13.97;;
16033;SDS011;8121;51.418;6.998;2024-03-06T23:49:57;18.60;;;10.10;;
16033;SDS011;8121;51.418;6.998;2024-03-06T23:54:58;25.60;;;12.40;;
